首页
METAR-TAF:

METAR-TAF

机场 :

Dease Lake, 不列颠哥伦比亚, 加拿大

纬度: 58-25-20N, 经度: 130-01-53W, 海拔: 803米

当前天气观测

该预报发布于42分钟前的20:00 UTC
风速5节,风向西转西南,在南转西南西转西北之间变化
温度 3°C
湿度 93%
气压 991 hPa
能見度: 14.5公里
少量云层高于500英尺
多云层高于2500英尺
多云层高于3000英尺
阴天层高于7000英尺

METAR: CYDL 172000Z AUTO 24005KT 210V300 9SM FEW005 BKN025 BKN030 OVC070 03/02 A2927 RMK SLP931

时间: 12:42 (20:42 UTC)

预报

该预报发布于3小时和4分钟前的17:38 UTC
预报有效从17日的 18点(UTC)到 18日的 03点(UTC)
风速3节,风向多变
能見度: 10公里
散云层高于500英尺
阴天层高于4000英尺
短暂存在
从 17日的 18点(UTC)到 17日的 21点(UTC)
能見度: 10公里
阴天层高于300英尺
小雨
成为
从 17日的 19点(UTC)到 17日的 21点(UTC)
风速10节,风向西南
从 17日的 2100点(UTC)
风速10节,风向西南
能見度: 10公里
散云层高于2000英尺
多云层高于4000英尺
短暂存在
从 17日的 21点(UTC)到 18日的 03点(UTC)
能見度: 10公里
多云层高于2000英尺
小雨

TAF: CYDL 171738Z 1718/1803 VRB03KT P6SM SCT005 OVC040 TEMPO 1718/1721 P6SM -RA OVC003 BECMG 1719/1721 22010KT FM172100 22010KT P6SM SCT020 BKN040 TEMPO 1721/1803 P6SM -RA BKN020 RMK FCST BASED ON AUTO OBS. NXT FCST BY 180000Z

超过4000个机场的气象观测和天气预报(METAR&TAF报告)。

可查询的气象台以黄色和红色小点在地图上表示。

将鼠标移到小点上方,可查看气象台名称。

然后点击查看天气观测和预报。

如需切换地图:点击带黑十字的绿色按钮放大地图;点击带横线的绿色按钮缩小地图;或者点击绿色箭头查看邻近地区的地图。


METAR-TAF: